sensor_id;sensor_type;location;lat;lon;timestamp;pressure;altitude;pressure_sealevel;temperature;humidity
21664;BME280;10993;52.510;13.456;2023-07-31T00:02:22;56911.09;;;-146.93;97.03
21664;BME280;10993;52.510;13.456;2023-07-31T00:07:22;56919.19;;;-146.93;97.58
21664;BME280;10993;52.510;13.456;2023-07-31T00:12:22;56860.47;;;-146.93;97.63
21664;BME280;10993;52.510;13.456;2023-07-31T00:17:24;56943.47;;;-146.93;98.61
21664;BME280;10993;52.510;13.456;2023-07-31T00:22:24;56880.72;;;-146.93;98.59
21664;BME280;10993;52.510;13.456;2023-07-31T00:27:25;56894.88;;;-146.93;98.27
21664;BME280;10993;52.510;13.456;2023-07-31T00:32:26;56929.31;;;-146.93;97.87
21664;BME280;10993;52.510;13.456;2023-07-31T00:37:27;56900.97;;;-146.93;98.40
21664;BME280;10993;52.510;13.456;2023-07-31T00:42:27;56779.47;;;-146.93;98.45
21664;BME280;10993;52.510;13.456;2023-07-31T00:47:29;56921.22;;;-146.93;98.37
21664;BME280;10993;52.510;13.456;2023-07-31T00:52:29;56945.50;;;-146.93;98.85
21664;BME280;10993;52.510;13.456;2023-07-31T00:57:30;56878.69;;;-146.93;98.34
21664;BME280;10993;52.510;13.456;2023-07-31T01:02:33;56828.06;;;-146.93;98.08
21664;BME280;10993;52.510;13.456;2023-07-31T01:07:39;56933.34;;;-146.93;98.20
21664;BME280;10993;52.510;13.456;2023-07-31T01:12:44;56913.09;;;-146.93;98.13
21664;BME280;10993;52.510;13.456;2023-07-31T01:17:46;56975.88;;;-146.93;98.40
21664;BME280;10993;52.510;13.456;2023-07-31T01:23:26;56892.84;;;-146.93;98.43
21664;BME280;10993;52.510;13.456;2023-07-31T01:28:45;57022.44;;;-146.93;98.77
21664;BME280;10993;52.510;13.456;2023-07-31T01:33:48;56907.03;;;-146.93;98.56
21664;BME280;10993;52.510;13.456;2023-07-31T01:38:49;56939.44;;;-146.93;98.81
21664;BME280;10993;52.510;13.456;2023-07-31T01:43:51;57054.84;;;-146.93;99.87
21664;BME280;10993;52.510;13.456;2023-07-31T01:48:52;56986.00;;;-146.93;99.87
21664;BME280;10993;52.510;13.456;2023-07-31T01:53:52;57109.53;;;-146.93;100.00
21664;BME280;10993;52.510;13.456;2023-07-31T01:58:53;57099.41;;;-146.93;99.73
21664;BME280;10993;52.510;13.456;2023-07-31T02:03:54;56996.13;;;-146.93;97.75
21664;BME280;10993;52.510;13.456;2023-07-31T02:08:54;56894.88;;;-146.93;97.84
21664;BME280;10993;52.510;13.456;2023-07-31T02:13:56;56994.09;;;-146.93;97.85
21664;BME280;10993;52.510;13.456;2023-07-31T02:18:56;56990.06;;;-146.93;98.30
21664;BME280;10993;52.510;13.456;2023-07-31T02:23:57;56998.16;;;-146.93;97.84
21664;BME280;10993;52.510;13.456;2023-07-31T02:28:58;57026.50;;;-146.93;98.79
21664;BME280;10993;52.510;13.456;2023-07-31T02:33:59;57026.50;;;-146.93;98.59
21664;BME280;10993;52.510;13.456;2023-07-31T02:38:59;56979.94;;;-146.93;98.46
21664;BME280;10993;52.510;13.456;2023-07-31T02:44:00;57034.59;;;-146.93;99.61
21664;BME280;10993;52.510;13.456;2023-07-31T02:49:01;56990.06;;;-146.93;99.01
21664;BME280;10993;52.510;13.456;2023-07-31T02:54:01;56941.44;;;-146.93;98.15
21664;BME280;10993;52.510;13.456;2023-07-31T02:59:03;57022.44;;;-146.93;99.10
21664;BME280;10993;52.510;13.456;2023-07-31T03:04:03;57135.84;;;-146.93;100.00
21664;BME280;10993;52.510;13.456;2023-07-31T03:09:04;57093.31;;;-146.93;100.00
21664;BME280;10993;52.510;13.456;2023-07-31T03:14:06;57046.75;;;-146.93;100.00
21664;BME280;10993;52.510;13.456;2023-07-31T03:19:06;57095.34;;;-146.93;100.00
21664;BME280;10993;52.510;13.456;2023-07-31T03:24:06;57245.22;;;-146.93;100.00
21664;BME280;10993;52.510;13.456;2023-07-31T03:29:08;57241.16;;;-146.93;100.00
21664;BME280;10993;52.510;13.456;2023-07-31T03:34:08;57352.53;;;-146.93;100.00
21664;BME280;10993;52.510;13.456;2023-07-31T03:39:09;57378.88;;;-146.93;100.00
21664;BME280;10993;52.510;13.456;2023-07-31T03:44:10;57360.63;;;-146.93;100.00
21664;BME280;10993;52.510;13.456;2023-07-31T03:49:11;57504.44;;;-146.93;100.00
21664;BME280;10993;52.510;13.456;2023-07-31T03:54:11;57344.44;;;-146.93;100.00
21664;BME280;10993;52.510;13.456;2023-07-31T03:59:14;57255.34;;;-146.93;100.00
21664;BME280;10993;52.510;13.456;2023-07-31T04:04:14;57399.13;;;-146.93;100.00
21664;BME280;10993;52.510;13.456;2023-07-31T04:09:15;57382.91;;;-146.93;100.00
21664;BME280;10993;52.510;13.456;2023-07-31T04:14:16;57281.66;;;-146.93;100.00
21664;BME280;10993;52.510;13.456;2023-07-31T04:19:17;57427.47;;;-146.93;100.00
21664;BME280;10993;52.510;13.456;2023-07-31T04:24:17;57164.19;;;-146.93;100.00
21664;BME280;10993;52.510;13.456;2023-07-31T04:29:25;57182.44;;;-146.93;100.00
21664;BME280;10993;52.510;13.456;2023-07-31T04:34:25;57079.16;;;-146.93;99.35
21664;BME280;10993;52.510;13.456;2023-07-31T04:39:26;57137.88;;;-146.93;99.40
21664;BME280;10993;52.510;13.456;2023-07-31T04:44:27;57046.75;;;-146.93;98.48
21664;BME280;10993;52.510;13.456;2023-07-31T04:49:28;57030.56;;;-146.93;98.56
21664;BME280;10993;52.510;13.456;2023-07-31T04:54:28;57125.72;;;-146.93;98.89
21664;BME280;10993;52.510;13.456;2023-07-31T04:59:30;57071.06;;;-146.93;98.45
21664;BME280;10993;52.510;13.456;2023-07-31T05:04:31;57139.91;;;-146.93;99.93
21664;BME280;10993;52.510;13.456;2023-07-31T05:09:32;57127.75;;;-146.93;99.61
21664;BME280;10993;52.510;13.456;2023-07-31T05:14:33;57075.09;;;-146.93;97.52
21664;BME280;10993;52.510;13.456;2023-07-31T05:19:33;57095.34;;;-146.93;97.25
21664;BME280;10993;52.510;13.456;2023-07-31T05:24:34;57091.31;;;-146.93;95.80
21664;BME280;10993;52.510;13.456;2023-07-31T05:29:35;57069.03;;;-146.93;95.51
21664;BME280;10993;52.510;13.456;2023-07-31T05:34:36;57048.78;;;-146.93;95.89
21664;BME280;10993;52.510;13.456;2023-07-31T05:39:36;57119.66;;;-146.93;96.52
21664;BME280;10993;52.510;13.456;2023-07-31T05:44:38;57109.53;;;-146.93;95.82
21664;BME280;10993;52.510;13.456;2023-07-31T05:49:38;57119.66;;;-146.93;96.66
21664;BME280;10993;52.510;13.456;2023-07-31T05:54:38;57085.22;;;-146.93;96.77
21664;BME280;10993;52.510;13.456;2023-07-31T05:59:40;57107.50;;;-146.93;97.23
21664;BME280;10993;52.510;13.456;2023-07-31T06:04:40;57188.50;;;-146.93;97.37
21664;BME280;10993;52.510;13.456;2023-07-31T06:09:41;57073.06;;;-146.93;95.84
21664;BME280;10993;52.510;13.456;2023-07-31T06:14:42;57056.88;;;-146.93;94.99
21664;BME280;10993;52.510;13.456;2023-07-31T06:19:43;57133.81;;;-146.93;94.95
21664;BME280;10993;52.510;13.456;2023-07-31T06:24:43;57103.44;;;-146.93;94.79
21664;BME280;10993;52.510;13.456;2023-07-31T06:29:45;57152.06;;;-146.93;94.90
21664;BME280;10993;52.510;13.456;2023-07-31T06:34:45;57168.25;;;-146.93;94.52
21664;BME280;10993;52.510;13.456;2023-07-31T06:39:45;57202.69;;;-146.93;94.50
21664;BME280;10993;52.510;13.456;2023-07-31T06:44:47;57202.69;;;-146.93;94.22
21664;BME280;10993;52.510;13.456;2023-07-31T06:49:47;57241.16;;;-146.93;93.66
21664;BME280;10993;52.510;13.456;2023-07-31T06:55:00;57188.50;;;-146.93;92.74
21664;BME280;10993;52.510;13.456;2023-07-31T07:00:05;57196.59;;;-146.93;92.48
21664;BME280;10993;52.510;13.456;2023-07-31T07:05:06;57196.59;;;-146.93;92.09
21664;BME280;10993;52.510;13.456;2023-07-31T07:10:08;57447.72;;;-146.93;91.51
21664;BME280;10993;52.510;13.456;2023-07-31T07:15:10;57188.50;;;-146.93;90.52
21664;BME280;10993;52.510;13.456;2023-07-31T07:20:10;57188.50;;;-146.93;90.68
21664;BME280;10993;52.510;13.456;2023-07-31T07:25:11;57188.50;;;-146.93;91.06
21664;BME280;10993;52.510;13.456;2023-07-31T07:30:12;57174.31;;;-146.93;88.65
21664;BME280;10993;52.510;13.456;2023-07-31T07:35:14;57447.72;;;-146.93;83.64
21664;BME280;10993;52.510;13.456;2023-07-31T07:40:15;57478.09;;;-146.93;81.37
21664;BME280;10993;52.510;13.456;2023-07-31T07:45:16;57474.06;;;-146.93;81.74
21664;BME280;10993;52.510;13.456;2023-07-31T07:50:17;57366.72;;;-146.93;78.14
21664;BME280;10993;52.510;13.456;2023-07-31T07:55:17;57619.88;;;-146.93;76.94
21664;BME280;10993;52.510;13.456;2023-07-31T08:00:19;57595.56;;;-146.93;76.25
21664;BME280;10993;52.510;13.456;2023-07-31T08:05:19;57459.88;;;-146.93;78.40
21664;BME280;10993;52.510;13.456;2023-07-31T08:10:19;57540.88;;;-146.93;78.53
21664;BME280;10993;52.510;13.456;2023-07-31T08:15:21;58537.47;;;-146.93;79.34
21664;BME280;10993;52.510;13.456;2023-07-31T08:20:21;57478.09;;;-146.93;80.57
21664;BME280;10993;52.510;13.456;2023-07-31T08:25:22;57413.28;;;-146.93;83.82
21664;BME280;10993;52.510;13.456;2023-07-31T08:30:23;57461.91;;;-146.93;82.58
21664;BME280;10993;52.510;13.456;2023-07-31T08:35:24;57516.59;;;-146.93;80.77
21664;BME280;10993;52.510;13.456;2023-07-31T08:40:25;57557.09;;;-146.93;80.81
21664;BME280;10993;52.510;13.456;2023-07-31T08:45:27;57587.47;;;-146.93;82.10
21664;BME280;10993;52.510;13.456;2023-07-31T08:50:27;57611.78;;;-146.93;79.73
21664;BME280;10993;52.510;13.456;2023-07-31T08:55:28;57632.03;;;-146.93;79.32
21664;BME280;10993;52.510;13.456;2023-07-31T09:00:31;57573.28;;;-146.93;76.97
21664;BME280;10993;52.510;13.456;2023-07-31T09:05:32;57751.53;;;-146.93;76.76
21664;BME280;10993;52.510;13.456;2023-07-31T09:10:33;57747.47;;;-146.93;74.93
21664;BME280;10993;52.510;13.456;2023-07-31T09:15:35;57917.59;;;-146.93;71.89
21664;BME280;10993;52.510;13.456;2023-07-31T09:20:36;57885.19;;;-146.93;71.44
21664;BME280;10993;52.510;13.456;2023-07-31T09:25:38;57613.78;;;-146.93;80.96
21664;BME280;10993;52.510;13.456;2023-07-31T09:30:46;57512.53;;;-146.93;83.30
21664;BME280;10993;52.510;13.456;2023-07-31T09:35:47;57449.75;;;-146.93;84.81
21664;BME280;10993;52.510;13.456;2023-07-31T09:40:50;57403.16;;;-146.93;88.36
21664;BME280;10993;52.510;13.456;2023-07-31T09:45:55;57386.97;;;-146.93;91.02
21664;BME280;10993;52.510;13.456;2023-07-31T09:51:04;57291.78;;;-146.93;90.99
21664;BME280;10993;52.510;13.456;2023-07-31T09:56:04;57364.69;;;-146.93;88.42
21664;BME280;10993;52.510;13.456;2023-07-31T10:01:06;57421.41;;;-146.93;88.23
21664;BME280;10993;52.510;13.456;2023-07-31T10:06:09;57662.41;;;-146.93;84.71
21664;BME280;10993;52.510;13.456;2023-07-31T10:11:10;57524.69;;;-146.93;82.02
21664;BME280;10993;52.510;13.456;2023-07-31T10:16:13;57824.44;;;-146.93;76.98
21664;BME280;10993;52.510;13.456;2023-07-31T10:21:15;57871.03;;;-146.93;74.02
21664;BME280;10993;52.510;13.456;2023-07-31T10:26:17;57777.84;;;-146.93;74.45
21664;BME280;10993;52.510;13.456;2023-07-31T10:31:19;57650.25;;;-146.93;77.33
21664;BME280;10993;52.510;13.456;2023-07-31T10:36:20;57646.19;;;-146.93;81.51
21664;BME280;10993;52.510;13.456;2023-07-31T10:41:28;57654.31;;;-146.93;81.00
21664;BME280;10993;52.510;13.456;2023-07-31T10:46:30;57897.34;;;-146.93;76.87
21664;BME280;10993;52.510;13.456;2023-07-31T10:51:35;58306.53;;;-146.93;69.66
21664;BME280;10993;52.510;13.456;2023-07-31T10:56:37;59147.31;;;-146.93;52.91
21664;BME280;10993;52.510;13.456;2023-07-31T11:01:53;59376.28;;;-146.93;48.56
21664;BME280;10993;52.510;13.456;2023-07-31T11:06:57;59187.84;;;-146.93;51.59
21664;BME280;10993;52.510;13.456;2023-07-31T11:11:59;59497.88;;;-146.93;46.17
21664;BME280;10993;52.510;13.456;2023-07-31T11:17:05;59123.00;;;-146.93;48.33
21664;BME280;10993;52.510;13.456;2023-07-31T11:22:06;58602.28;;;-146.93;53.32
21664;BME280;10993;52.510;13.456;2023-07-31T11:27:07;58561.78;;;-146.93;52.97
21664;BME280;10993;52.510;13.456;2023-07-31T11:32:15;58494.94;;;-146.93;51.69
21664;BME280;10993;52.510;13.456;2023-07-31T11:37:17;58521.25;;;-146.93;50.86
21664;BME280;10993;52.510;13.456;2023-07-31T11:42:17;58450.34;;;-146.93;51.69
21664;BME280;10993;52.510;13.456;2023-07-31T11:47:19;58308.56;;;-146.93;52.54
21664;BME280;10993;52.510;13.456;2023-07-31T11:52:20;58257.91;;;-146.93;54.50
21664;BME280;10993;52.510;13.456;2023-07-31T11:57:20;58304.50;;;-146.93;51.97
21664;BME280;10993;52.510;13.456;2023-07-31T12:02:22;58223.47;;;-146.93;52.45
21664;BME280;10993;52.510;13.456;2023-07-31T12:07:23;58217.41;;;-146.93;54.28
21664;BME280;10993;52.510;13.456;2023-07-31T12:12:25;58033.06;;;-146.93;59.29
21664;BME280;10993;52.510;13.456;2023-07-31T12:17:27;58140.41;;;-146.93;57.39
21664;BME280;10993;52.510;13.456;2023-07-31T12:22:27;58324.75;;;-146.93;52.88
21664;BME280;10993;52.510;13.456;2023-07-31T12:27:32;58430.09;;;-146.93;50.96
21664;BME280;10993;52.510;13.456;2023-07-31T12:32:34;58586.09;;;-146.93;49.87
21664;BME280;10993;52.510;13.456;2023-07-31T12:37:34;58598.25;;;-146.93;47.17
21664;BME280;10993;52.510;13.456;2023-07-31T12:42:35;58867.69;;;-146.93;43.98
21664;BME280;10993;52.510;13.456;2023-07-31T12:47:36;58944.69;;;-146.93;43.35
21664;BME280;10993;52.510;13.456;2023-07-31T12:52:37;58910.25;;;-146.93;44.05
21664;BME280;10993;52.510;13.456;2023-07-31T12:57:37;58634.72;;;-146.93;46.18
21664;BME280;10993;52.510;13.456;2023-07-31T13:02:39;58590.13;;;-146.93;47.79
21664;BME280;10993;52.510;13.456;2023-07-31T13:07:39;58545.56;;;-146.93;48.01
21664;BME280;10993;52.510;13.456;2023-07-31T13:12:40;58340.97;;;-146.93;50.56
21664;BME280;10993;52.510;13.456;2023-07-31T13:17:42;58286.28;;;-146.93;52.29
21664;BME280;10993;52.510;13.456;2023-07-31T13:22:42;58209.28;;;-146.93;52.79
21664;BME280;10993;52.510;13.456;2023-07-31T13:27:42;58336.91;;;-146.93;51.75
21664;BME280;10993;52.510;13.456;2023-07-31T13:32:44;58229.53;;;-146.93;55.27
21664;BME280;10993;52.510;13.456;2023-07-31T13:37:45;58367.31;;;-146.93;53.27
21664;BME280;10993;52.510;13.456;2023-07-31T13:42:45;58401.75;;;-146.93;50.96
21664;BME280;10993;52.510;13.456;2023-07-31T13:47:49;58705.63;;;-146.93;48.15
21664;BME280;10993;52.510;13.456;2023-07-31T13:52:50;58776.53;;;-146.93;46.67
21664;BME280;10993;52.510;13.456;2023-07-31T13:57:50;58792.75;;;-146.93;46.19
21664;BME280;10993;52.510;13.456;2023-07-31T14:02:52;59232.41;;;-146.93;46.01
21664;BME280;10993;52.510;13.456;2023-07-31T14:07:53;58594.19;;;-146.93;47.93
21664;BME280;10993;52.510;13.456;2023-07-31T14:12:53;58444.28;;;-146.93;49.45
21664;BME280;10993;52.510;13.456;2023-07-31T14:17:55;58610.41;;;-146.93;48.88
21664;BME280;10993;52.510;13.456;2023-07-31T14:22:55;58543.53;;;-146.93;48.67
21664;BME280;10993;52.510;13.456;2023-07-31T14:27:55;58582.03;;;-146.93;49.27
21664;BME280;10993;52.510;13.456;2023-07-31T14:32:57;58468.59;;;-146.93;50.75
21664;BME280;10993;52.510;13.456;2023-07-31T14:37:57;58383.50;;;-146.93;52.04
21664;BME280;10993;52.510;13.456;2023-07-31T14:42:58;58308.56;;;-146.93;49.76
21664;BME280;10993;52.510;13.456;2023-07-31T14:47:59;58460.47;;;-146.93;49.25
21664;BME280;10993;52.510;13.456;2023-07-31T14:53:00;58468.59;;;-146.93;49.54
21664;BME280;10993;52.510;13.456;2023-07-31T14:58:00;58464.53;;;-146.93;49.00
21664;BME280;10993;52.510;13.456;2023-07-31T15:03:03;58448.34;;;-146.93;49.45
21664;BME280;10993;52.510;13.456;2023-07-31T15:08:03;58436.19;;;-146.93;50.76
21664;BME280;10993;52.510;13.456;2023-07-31T15:13:03;58288.28;;;-146.93;51.54
21664;BME280;10993;52.510;13.456;2023-07-31T15:18:05;58114.09;;;-146.93;53.06
21664;BME280;10993;52.510;13.456;2023-07-31T15:23:05;58057.38;;;-146.93;58.46
21664;BME280;10993;52.510;13.456;2023-07-31T15:28:06;57885.19;;;-146.93;64.23
21664;BME280;10993;52.510;13.456;2023-07-31T15:33:08;57838.63;;;-146.93;67.80
21664;BME280;10993;52.510;13.456;2023-07-31T15:38:09;57913.56;;;-146.93;67.24
21664;BME280;10993;52.510;13.456;2023-07-31T15:43:09;57897.34;;;-146.93;65.20
21664;BME280;10993;52.510;13.456;2023-07-31T15:48:10;57978.38;;;-146.93;65.34
21664;BME280;10993;52.510;13.456;2023-07-31T15:53:11;57929.75;;;-146.93;64.49
21664;BME280;10993;52.510;13.456;2023-07-31T15:58:11;58184.97;;;-146.93;63.83
21664;BME280;10993;52.510;13.456;2023-07-31T16:03:13;58266.00;;;-146.93;62.22
21664;BME280;10993;52.510;13.456;2023-07-31T16:08:13;58233.59;;;-146.93;61.38
21664;BME280;10993;52.510;13.456;2023-07-31T16:13:14;58225.50;;;-146.93;61.68
21664;BME280;10993;52.510;13.456;2023-07-31T16:18:15;58164.72;;;-146.93;61.69
21664;BME280;10993;52.510;13.456;2023-07-31T16:23:15;57996.59;;;-146.93;62.77
21664;BME280;10993;52.510;13.456;2023-07-31T16:28:16;58020.91;;;-146.93;62.93
21664;BME280;10993;52.510;13.456;2023-07-31T16:33:17;57998.63;;;-146.93;62.01
21664;BME280;10993;52.510;13.456;2023-07-31T16:38:18;58022.94;;;-146.93;61.39
21664;BME280;10993;52.510;13.456;2023-07-31T16:43:18;58018.88;;;-146.93;60.80
21664;BME280;10993;52.510;13.456;2023-07-31T16:48:20;57978.38;;;-146.93;58.81
21664;BME280;10993;52.510;13.456;2023-07-31T16:53:20;57948.00;;;-146.93;58.90
21664;BME280;10993;52.510;13.456;2023-07-31T16:58:21;58014.84;;;-146.93;58.56
21664;BME280;10993;52.510;13.456;2023-07-31T17:03:22;58047.25;;;-146.93;58.18
21664;BME280;10993;52.510;13.456;2023-07-31T17:08:23;58043.19;;;-146.93;58.38
21664;BME280;10993;52.510;13.456;2023-07-31T17:13:23;58103.97;;;-146.93;57.31
21664;BME280;10993;52.510;13.456;2023-07-31T17:18:25;57988.50;;;-146.93;57.75
21664;BME280;10993;52.510;13.456;2023-07-31T17:23:25;58026.97;;;-146.93;59.29
21664;BME280;10993;52.510;13.456;2023-07-31T17:28:25;57935.84;;;-146.93;59.15
21664;BME280;10993;52.510;13.456;2023-07-31T17:33:29;57998.63;;;-146.93;60.07
21664;BME280;10993;52.510;13.456;2023-07-31T17:38:29;57897.34;;;-146.93;63.66
21664;BME280;10993;52.510;13.456;2023-07-31T17:43:29;57619.88;;;-146.93;78.34
21664;BME280;10993;52.510;13.456;2023-07-31T17:48:31;57518.59;;;-146.93;84.91
21664;BME280;10993;52.510;13.456;2023-07-31T17:53:31;57542.91;;;-146.93;87.20
21664;BME280;10993;52.510;13.456;2023-07-31T17:58:32;57486.19;;;-146.93;87.86
21664;BME280;10993;52.510;13.456;2023-07-31T18:03:33;57439.63;;;-146.93;88.11
21664;BME280;10993;52.510;13.456;2023-07-31T18:08:34;57259.38;;;-146.93;88.94
21664;BME280;10993;52.510;13.456;2023-07-31T18:13:34;57427.47;;;-146.93;90.12
21664;BME280;10993;52.510;13.456;2023-07-31T18:18:36;57395.06;;;-146.93;90.04
21664;BME280;10993;52.510;13.456;2023-07-31T18:23:36;57362.66;;;-146.93;90.40
21664;BME280;10993;52.510;13.456;2023-07-31T18:28:36;57395.06;;;-146.93;90.21
21664;BME280;10993;52.510;13.456;2023-07-31T18:33:38;57382.91;;;-146.93;88.00
21664;BME280;10993;52.510;13.456;2023-07-31T18:38:39;57395.06;;;-146.93;86.71
21664;BME280;10993;52.510;13.456;2023-07-31T18:43:39;57403.16;;;-146.93;84.75
21664;BME280;10993;52.510;13.456;2023-07-31T18:48:41;57427.47;;;-146.93;82.76
21664;BME280;10993;52.510;13.456;2023-07-31T18:53:41;57459.88;;;-146.93;80.59
21664;BME280;10993;52.510;13.456;2023-07-31T18:58:43;57395.06;;;-146.93;80.08
21664;BME280;10993;52.510;13.456;2023-07-31T19:03:44;57488.22;;;-146.93;78.71
21664;BME280;10993;52.510;13.456;2023-07-31T19:08:45;57291.78;;;-146.93;78.77
21664;BME280;10993;52.510;13.456;2023-07-31T19:13:45;57873.03;;;-146.93;78.60
21664;BME280;10993;52.510;13.456;2023-07-31T19:18:47;57500.38;;;-146.93;79.17
21664;BME280;10993;52.510;13.456;2023-07-31T19:23:47;57504.44;;;-146.93;78.37
21664;BME280;10993;52.510;13.456;2023-07-31T19:28:47;57463.94;;;-146.93;79.18
21664;BME280;10993;52.510;13.456;2023-07-31T19:33:49;57429.50;;;-146.93;79.02
21664;BME280;10993;52.510;13.456;2023-07-31T19:38:50;57486.19;;;-146.93;78.46
21664;BME280;10993;52.510;13.456;2023-07-31T19:43:50;57706.97;;;-146.93;78.33
21664;BME280;10993;52.510;13.456;2023-07-31T19:48:52;57429.50;;;-146.93;78.81
21664;BME280;10993;52.510;13.456;2023-07-31T19:53:53;57196.59;;;-146.93;78.69
21664;BME280;10993;52.510;13.456;2023-07-31T19:58:54;57504.44;;;-146.93;79.30
21664;BME280;10993;52.510;13.456;2023-07-31T20:03:55;57472.03;;;-146.93;78.77
21664;BME280;10993;52.510;13.456;2023-07-31T20:08:56;57293.81;;;-146.93;78.75
21664;BME280;10993;52.510;13.456;2023-07-31T20:13:57;57500.38;;;-146.93;79.00
21664;BME280;10993;52.510;13.456;2023-07-31T20:18:59;57492.28;;;-146.93;78.92
21664;BME280;10993;52.510;13.456;2023-07-31T20:23:59;57467.97;;;-146.93;79.54
21664;BME280;10993;52.510;13.456;2023-07-31T20:29:00;57399.13;;;-146.93;79.62
21664;BME280;10993;52.510;13.456;2023-07-31T20:34:02;57476.06;;;-146.93;80.30
21664;BME280;10993;52.510;13.456;2023-07-31T20:39:07;57439.63;;;-146.93;80.26
21664;BME280;10993;52.510;13.456;2023-07-31T20:44:08;57461.91;;;-146.93;80.59
21664;BME280;10993;52.510;13.456;2023-07-31T20:49:09;57427.47;;;-146.93;80.96
21664;BME280;10993;52.510;13.456;2023-07-31T20:54:10;57451.78;;;-146.93;81.00
21664;BME280;10993;52.510;13.456;2023-07-31T20:59:10;57249.25;;;-146.93;81.82
21664;BME280;10993;52.510;13.456;2023-07-31T21:04:12;57427.47;;;-146.93;82.59
21664;BME280;10993;52.510;13.456;2023-07-31T21:09:12;57358.63;;;-146.93;83.03
21664;BME280;10993;52.510;13.456;2023-07-31T21:14:13;57380.88;;;-146.93;83.20
21664;BME280;10993;52.510;13.456;2023-07-31T21:19:14;57374.81;;;-146.93;83.58
21664;BME280;10993;52.510;13.456;2023-07-31T21:24:15;58259.94;;;-146.93;82.67
21664;BME280;10993;52.510;13.456;2023-07-31T21:29:15;57423.41;;;-146.93;82.51
21664;BME280;10993;52.510;13.456;2023-07-31T21:34:17;57411.28;;;-146.93;82.99
21664;BME280;10993;52.510;13.456;2023-07-31T21:39:17;57605.69;;;-146.93;82.59
21664;BME280;10993;52.510;13.456;2023-07-31T21:44:18;57415.31;;;-146.93;82.06
21664;BME280;10993;52.510;13.456;2023-07-31T21:49:19;57435.56;;;-146.93;82.18
21664;BME280;10993;52.510;13.456;2023-07-31T21:54:20;57265.47;;;-146.93;82.25
21664;BME280;10993;52.510;13.456;2023-07-31T21:59:20;57427.47;;;-146.93;81.95
21664;BME280;10993;52.510;13.456;2023-07-31T22:04:21;57435.56;;;-146.93;81.77
21664;BME280;10993;52.510;13.456;2023-07-31T22:09:22;57391.00;;;-146.93;81.37
21664;BME280;10993;52.510;13.456;2023-07-31T22:14:22;57401.16;;;-146.93;81.66
21664;BME280;10993;52.510;13.456;2023-07-31T22:19:24;57439.63;;;-146.93;81.71
21664;BME280;10993;52.510;13.456;2023-07-31T22:24:24;57403.16;;;-146.93;81.28
21664;BME280;10993;52.510;13.456;2023-07-31T22:29:24;57463.94;;;-146.93;80.88
21664;BME280;10993;52.510;13.456;2023-07-31T22:34:26;57447.72;;;-146.93;80.81
21664;BME280;10993;52.510;13.456;2023-07-31T22:39:26;57457.84;;;-146.93;80.76
21664;BME280;10993;52.510;13.456;2023-07-31T22:44:27;57382.91;;;-146.93;80.09
21664;BME280;10993;52.510;13.456;2023-07-31T22:49:28;57431.53;;;-146.93;80.75
21664;BME280;10993;52.510;13.456;2023-07-31T22:54:29;57413.28;;;-146.93;80.44
21664;BME280;10993;52.510;13.456;2023-07-31T22:59:29;57372.78;;;-146.93;79.63
21664;BME280;10993;52.510;13.456;2023-07-31T23:04:31;57393.03;;;-146.93;79.00
21664;BME280;10993;52.510;13.456;2023-07-31T23:09:31;57433.53;;;-146.93;79.04
21664;BME280;10993;52.510;13.456;2023-07-31T23:14:31;57415.31;;;-146.93;79.58
21664;BME280;10993;52.510;13.456;2023-07-31T23:19:33;57524.69;;;-146.93;78.90
21664;BME280;10993;52.510;13.456;2023-07-31T23:24:33;57447.72;;;-146.93;78.85
21664;BME280;10993;52.510;13.456;2023-07-31T23:29:34;57378.88;;;-146.93;79.04
21664;BME280;10993;52.510;13.456;2023-07-31T23:34:37;57358.63;;;-146.93;80.97
21664;BME280;10993;52.510;13.456;2023-07-31T23:39:37;57366.72;;;-146.93;82.61
21664;BME280;10993;52.510;13.456;2023-07-31T23:44:37;57318.09;;;-146.93;84.06
21664;BME280;10993;52.510;13.456;2023-07-31T23:49:39;57312.03;;;-146.93;86.18
21664;BME280;10993;52.510;13.456;2023-07-31T23:54:40;57307.97;;;-146.93;86.45
21664;BME280;10993;52.510;13.456;2023-07-31T23:59:40;57314.06;;;-146.93;87.20
